createdAt,value
2019-03-01T00:01:04.647Z,51.23
2019-03-01T00:03:34.393Z,51.67
2019-03-01T00:06:16.894Z,48.97
2019-03-01T00:09:13.644Z,49.73
2019-03-01T00:12:13.718Z,37.27
2019-03-01T00:15:32.917Z,47.80
2019-03-01T00:18:33.829Z,41.50
2019-03-01T00:21:40.615Z,48.30
2019-03-01T00:24:40.094Z,53.07
2019-03-01T00:27:44.318Z,55.77
2019-03-01T00:30:49.497Z,57.20
2019-03-01T00:33:41.599Z,58.17
2019-03-01T00:37:12.949Z,53.80
2019-03-01T00:39:54.426Z,59.17
2019-03-01T00:42:55.713Z,66.60
2019-03-01T00:45:44.624Z,52.20
2019-03-01T00:48:14.260Z,52.40
2019-03-01T00:50:43.973Z,61.13
2019-03-01T00:53:13.349Z,58.50
2019-03-01T00:55:42.679Z,53.67
2019-03-01T00:58:12.478Z,51.07
2019-03-01T01:00:45.065Z,48.90
2019-03-01T01:03:14.457Z,51.37
2019-03-01T01:05:43.814Z,55.00
2019-03-01T01:08:13.825Z,57.80
2019-03-01T01:10:43.212Z,58.73
2019-03-01T01:13:12.605Z,59.47
2019-03-01T01:15:41.997Z,57.13
2019-03-01T01:18:11.379Z,58.37
2019-03-01T01:20:40.834Z,71.43
2019-03-01T01:23:10.288Z,50.17
2019-03-01T01:25:39.696Z,60.40
2019-03-01T01:28:09.487Z,57.23
2019-03-01T01:30:38.949Z,55.63
2019-03-01T01:33:08.290Z,57.77
2019-03-01T01:35:38.065Z,58.10
2019-03-01T01:38:08.233Z,49.17
2019-03-01T01:40:37.628Z,57.17
2019-03-01T01:43:06.982Z,57.63
2019-03-01T01:45:36.484Z,47.30
2019-03-01T01:48:05.914Z,53.90
2019-03-01T01:50:35.295Z,43.20
2019-03-01T01:53:04.756Z,56.63
2019-03-01T01:55:36.197Z,52.50
2019-03-01T01:58:05.577Z,53.87
2019-03-01T02:00:35.081Z,53.70
2019-03-01T02:03:04.443Z,51.33
2019-03-01T02:05:35.668Z,43.87
2019-03-01T02:08:05.010Z,43.83
2019-03-01T02:10:34.658Z,49.00
2019-03-01T02:13:03.991Z,43.77
2019-03-01T02:15:33.706Z,44.47
2019-03-01T02:18:03.123Z,41.97
2019-03-01T02:20:32.728Z,40.47
2019-03-01T02:23:02.362Z,37.50
2019-03-01T02:25:31.726Z,42.43
2019-03-01T02:28:01.085Z,36.03
2019-03-01T02:30:30.795Z,31.17
2019-03-01T02:33:00.130Z,31.93
2019-03-01T02:35:29.538Z,28.83
2019-03-01T02:37:58.928Z,25.77
2019-03-01T02:40:28.378Z,30.40
2019-03-01T02:42:57.710Z,26.30
2019-03-01T02:45:27.151Z,23.50
2019-03-01T02:47:56.567Z,24.60
2019-03-01T02:50:25.949Z,21.90
2019-03-01T02:52:55.361Z,34.63
2019-03-01T02:55:24.811Z,20.07
2019-03-01T02:57:54.105Z,22.70
2019-03-01T03:00:25.340Z,22.10
2019-03-01T03:02:54.783Z,24.33
2019-03-01T03:05:24.218Z,23.40
2019-03-01T03:07:58.833Z,20.27
2019-03-01T03:10:28.215Z,33.30
2019-03-01T03:13:00.335Z,25.80
2019-03-01T03:15:44.019Z,23.30
2019-03-01T03:18:13.535Z,26.40
2019-03-01T03:20:43.000Z,25.33
2019-03-01T03:23:12.351Z,23.50
2019-03-01T03:25:43.671Z,28.17
2019-03-01T03:28:13.149Z,25.73
2019-03-01T03:30:42.604Z,26.40
2019-03-01T03:33:12.056Z,25.47
2019-03-01T03:35:41.488Z,25.73
2019-03-01T03:38:10.819Z,28.27
2019-03-01T03:40:42.215Z,24.73
2019-03-01T03:43:11.614Z,30.50
2019-03-01T03:45:41.008Z,25.07
2019-03-01T03:48:10.401Z,30.43
2019-03-01T03:50:40.970Z,23.63
2019-03-01T03:53:10.343Z,28.00
2019-03-01T03:55:39.928Z,33.60
2019-03-01T03:58:09.506Z,32.07
2019-03-01T04:00:38.957Z,32.73
2019-03-01T04:03:09.347Z,31.50
2019-03-01T04:05:38.753Z,26.17
2019-03-01T04:08:08.316Z,29.23
2019-03-01T04:10:37.648Z,36.30
2019-03-01T04:13:07.005Z,33.40
2019-03-01T04:15:36.222Z,26.43
2019-03-01T04:18:05.581Z,39.13
2019-03-01T04:20:35.477Z,29.50
2019-03-01T04:23:04.770Z,31.83
2019-03-01T04:25:34.096Z,29.17
2019-03-01T04:28:03.381Z,34.93
2019-03-01T04:30:32.705Z,33.83
2019-03-01T04:33:02.169Z,29.30
2019-03-01T04:35:31.626Z,33.13
2019-03-01T04:38:01.147Z,30.80
2019-03-01T04:40:30.470Z,31.03
2019-03-01T04:42:59.853Z,31.57
2019-03-01T04:45:29.170Z,29.10
2019-03-01T04:47:58.565Z,29.47
2019-03-01T04:50:27.917Z,30.70
2019-03-01T04:52:57.250Z,24.97
2019-03-01T04:55:26.862Z,32.57
2019-03-01T04:57:56.241Z,25.23
2019-03-01T05:00:25.535Z,31.60
2019-03-01T05:02:54.900Z,26.23
2019-03-01T05:05:24.266Z,45.50
2019-03-01T05:07:53.637Z,39.13
2019-03-01T05:10:23.106Z,36.33
2019-03-01T05:12:52.518Z,30.00
2019-03-01T05:15:22.758Z,24.77
2019-03-01T05:17:52.558Z,31.57
2019-03-01T05:20:22.379Z,37.13
2019-03-01T05:22:51.773Z,28.07
2019-03-01T05:25:21.097Z,27.57
2019-03-01T05:27:52.487Z,27.33
2019-03-01T05:30:21.878Z,27.60
2019-03-01T05:32:51.677Z,33.90
2019-03-01T05:35:21.066Z,23.83
2019-03-01T05:37:50.420Z,30.47
2019-03-01T05:40:20.564Z,31.33
2019-03-01T05:42:49.888Z,31.10
2019-03-01T05:45:22.454Z,31.40
2019-03-01T05:47:54.423Z,25.87
2019-03-01T05:50:24.231Z,24.50
2019-03-01T05:52:54.609Z,20.57
2019-03-01T05:55:25.635Z,18.50
2019-03-01T05:58:41.568Z,22.07
2019-03-01T06:01:18.811Z,23.07
2019-03-01T06:04:27.033Z,19.50
2019-03-01T06:07:25.894Z,35.10
2019-03-01T06:10:19.605Z,23.33
2019-03-01T06:13:42.603Z,21.07
2019-03-01T06:16:40.109Z,24.10
2019-03-01T06:19:34.072Z,29.23
2019-03-01T06:22:49.390Z,26.30
2019-03-01T06:26:02.988Z,29.40
2019-03-01T06:29:10.717Z,26.77
2019-03-01T06:32:36.824Z,28.13
2019-03-01T06:35:59.334Z,40.47
2019-03-01T06:39:39.306Z,24.27
2019-03-01T06:42:35.863Z,36.00
2019-03-01T06:45:26.257Z,35.60
2019-03-01T06:47:55.733Z,27.73
2019-03-01T06:50:44.068Z,32.70
2019-03-01T06:53:13.452Z,31.03
2019-03-01T06:56:02.915Z,31.83
2019-03-01T06:58:47.327Z,30.20
2019-03-01T07:01:18.717Z,32.37
2019-03-01T07:03:56.281Z,33.57
2019-03-01T07:06:25.782Z,30.00
2019-03-01T07:08:55.086Z,31.67
2019-03-01T07:11:24.548Z,31.90
2019-03-01T07:13:53.973Z,32.60
2019-03-01T07:16:23.374Z,38.13
2019-03-01T07:18:52.778Z,45.73
2019-03-01T07:21:22.226Z,35.80
2019-03-01T07:23:51.635Z,37.07
2019-03-01T07:26:21.044Z,39.07
2019-03-01T07:28:50.483Z,43.60
2019-03-01T07:31:21.583Z,39.50
2019-03-01T07:33:54.223Z,42.40
2019-03-01T07:36:23.670Z,47.77
2019-03-01T07:38:53.134Z,44.47
2019-03-01T07:41:22.543Z,39.50
2019-03-01T07:43:51.966Z,42.20
2019-03-01T07:46:21.437Z,46.80
2019-03-01T07:48:50.848Z,78.70
2019-03-01T07:51:20.352Z,58.00
2019-03-01T07:53:49.891Z,51.07
2019-03-01T07:56:19.351Z,59.40
2019-03-01T07:58:48.849Z,57.43
2019-03-01T08:01:20.625Z,58.80
2019-03-01T08:03:53.029Z,67.83
2019-03-01T08:06:21.880Z,80.80
2019-03-01T08:08:51.282Z,68.03
2019-03-01T08:11:20.822Z,80.10
2019-03-01T08:13:53.138Z,76.63
2019-03-01T08:16:21.582Z,75.23
2019-03-01T08:18:51.020Z,85.00
2019-03-01T08:21:20.867Z,83.57
2019-03-01T08:23:50.751Z,99.63
2019-03-01T08:26:21.249Z,89.23
2019-03-01T08:28:50.701Z,84.30
2019-03-01T08:31:21.043Z,84.63
2019-03-01T08:33:51.239Z,84.77
2019-03-01T08:36:20.643Z,89.87
2019-03-01T08:38:50.170Z,78.80
2019-03-01T08:41:21.653Z,84.50
2019-03-01T08:43:52.135Z,83.43
2019-03-01T08:46:21.612Z,96.97
2019-03-01T08:48:52.274Z,84.87
2019-03-01T08:51:22.711Z,91.20
2019-03-01T08:53:52.834Z,84.33
2019-03-01T08:56:26.217Z,91.33
2019-03-01T08:58:54.628Z,97.33
2019-03-01T09:01:24.201Z,97.10
2019-03-01T09:04:08.866Z,105.17
2019-03-01T09:06:38.400Z,114.63
2019-03-01T09:09:09.593Z,107.03
2019-03-01T09:11:41.678Z,111.03
2019-03-01T09:14:10.153Z,112.13
2019-03-01T09:16:41.056Z,121.97
2019-03-01T09:19:10.623Z,131.33
2019-03-01T09:21:40.011Z,120.73
2019-03-01T09:24:09.835Z,119.77
2019-03-01T09:26:39.312Z,122.10
2019-03-01T09:29:08.845Z,141.67
2019-03-01T09:31:38.311Z,119.17
2019-03-01T09:34:07.837Z,124.57
2019-03-01T09:36:43.975Z,146.90
2019-03-01T09:39:14.456Z,146.87
2019-03-01T09:41:44.707Z,161.33
2019-03-01T09:44:14.205Z,161.90
2019-03-01T09:46:43.808Z,160.57
2019-03-01T09:49:13.255Z,153.57
2019-03-01T09:51:43.751Z,155.23
2019-03-01T09:54:14.964Z,164.63
2019-03-01T09:56:44.901Z,174.53
2019-03-01T09:59:14.343Z,186.53
2019-03-01T10:01:44.266Z,157.77
2019-03-01T10:04:13.743Z,149.97
2019-03-01T10:06:43.196Z,161.20
2019-03-01T10:09:12.684Z,177.23
2019-03-01T10:11:42.194Z,177.30
2019-03-01T10:14:11.717Z,147.03
2019-03-01T10:16:41.218Z,175.23
2019-03-01T10:19:10.874Z,181.23
2019-03-01T10:21:40.643Z,171.67
2019-03-01T10:24:10.614Z,180.90
2019-03-01T10:26:40.440Z,199.47
2019-03-01T10:29:10.033Z,201.60
2019-03-01T10:31:39.760Z,193.37
2019-03-01T10:34:09.284Z,200.17
2019-03-01T10:36:39.993Z,183.83
2019-03-01T10:39:14.531Z,187.27
2019-03-01T10:41:44.018Z,212.97
2019-03-01T10:44:13.514Z,190.27
2019-03-01T10:46:43.002Z,200.23
2019-03-01T10:49:12.537Z,159.93
2019-03-01T10:51:42.118Z,174.37
2019-03-01T10:54:12.141Z,151.13
2019-03-01T10:56:41.667Z,140.50
2019-03-01T10:59:11.186Z,137.10
2019-03-01T11:01:41.746Z,134.50
2019-03-01T11:04:11.329Z,135.47
2019-03-01T11:06:40.843Z,150.07
2019-03-01T11:09:10.490Z,142.00
2019-03-01T11:11:41.301Z,134.40
2019-03-01T11:14:10.902Z,154.30
2019-03-01T11:16:40.437Z,141.77
2019-03-01T11:19:10.295Z,127.47
2019-03-01T11:21:41.083Z,148.77
2019-03-01T11:24:11.021Z,151.77
2019-03-01T11:26:40.608Z,164.27
2019-03-01T11:29:10.038Z,178.87
2019-03-01T11:31:41.297Z,187.10
2019-03-01T11:34:10.761Z,165.27
2019-03-01T11:36:40.284Z,159.27
2019-03-01T11:39:10.409Z,159.33
2019-03-01T11:41:39.855Z,136.33
2019-03-01T11:44:09.289Z,127.07
2019-03-01T11:46:38.810Z,106.10
2019-03-01T11:49:08.218Z,127.67
2019-03-01T11:51:39.104Z,118.37
2019-03-01T11:54:08.556Z,120.73
2019-03-01T11:56:38.174Z,125.43
2019-03-01T11:59:08.059Z,137.03
2019-03-01T12:01:37.588Z,139.50
2019-03-01T12:04:07.188Z,124.40
2019-03-01T12:06:36.629Z,139.13
2019-03-01T12:09:07.668Z,183.83
2019-03-01T12:11:37.193Z,201.30
2019-03-01T12:14:06.627Z,183.10
2019-03-01T12:16:36.157Z,254.07
2019-03-01T12:19:05.644Z,218.03
2019-03-01T12:21:39.062Z,201.00
2019-03-01T12:24:08.493Z,227.70
2019-03-01T12:26:38.027Z,229.43
2019-03-01T12:29:07.578Z,199.00
2019-03-01T12:31:37.286Z,206.30
2019-03-01T12:34:06.995Z,221.33
2019-03-01T12:36:36.483Z,227.13
2019-03-01T12:39:10.033Z,224.57
2019-03-01T12:41:39.719Z,233.00
2019-03-01T12:44:10.235Z,232.20
2019-03-01T12:46:40.077Z,212.63
2019-03-01T12:49:09.617Z,249.20
2019-03-01T12:51:39.135Z,257.03
2019-03-01T12:54:08.645Z,215.30
2019-03-01T12:56:38.271Z,226.30
2019-03-01T12:59:07.831Z,241.50
2019-03-01T13:01:37.362Z,227.67
2019-03-01T13:04:07.523Z,199.53
2019-03-01T13:06:38.910Z,211.37
2019-03-01T13:09:14.463Z,220.40
2019-03-01T13:11:43.964Z,230.57
2019-03-01T13:14:15.600Z,214.80
2019-03-01T13:16:45.191Z,209.57
2019-03-01T13:19:14.685Z,162.10
2019-03-01T13:21:45.588Z,189.53
2019-03-01T13:24:16.374Z,191.10
2019-03-01T13:26:47.122Z,177.97
2019-03-01T13:29:19.110Z,159.13
2019-03-01T13:31:47.931Z,138.97
2019-03-01T13:34:20.737Z,143.97
2019-03-01T13:36:52.295Z,132.57
2019-03-01T13:39:22.317Z,107.47
2019-03-01T13:41:51.810Z,97.67
2019-03-01T13:44:21.330Z,66.43
2019-03-01T13:46:51.248Z,74.23
2019-03-01T13:49:20.828Z,64.97
2019-03-01T13:51:53.059Z,74.73
2019-03-01T13:54:22.452Z,68.27
2019-03-01T13:56:51.884Z,73.60
2019-03-01T13:59:21.350Z,83.87
2019-03-01T14:01:50.968Z,87.73
2019-03-01T14:04:20.535Z,102.93
2019-03-01T14:06:50.019Z,86.23
2019-03-01T14:09:19.588Z,75.70
2019-03-01T14:11:49.061Z,98.73
2019-03-01T14:14:18.574Z,88.97
2019-03-01T14:16:48.539Z,99.47
2019-03-01T14:19:18.151Z,85.70
2019-03-01T14:21:47.655Z,79.23
2019-03-01T14:24:17.241Z,77.70
2019-03-01T14:26:47.251Z,74.77
2019-03-01T14:29:16.990Z,79.40
2019-03-01T14:31:47.160Z,78.87
2019-03-01T14:34:16.850Z,102.97
2019-03-01T14:36:46.471Z,115.63
2019-03-01T14:39:18.199Z,111.50
2019-03-01T14:41:47.687Z,174.37
2019-03-01T14:44:17.342Z,131.07
2019-03-01T14:46:47.229Z,145.37
2019-03-01T14:49:18.547Z,136.43
2019-03-01T14:51:48.333Z,136.17
2019-03-01T15:04:44.655Z,139.43
2019-03-01T15:07:14.257Z,158.60
2019-03-01T15:09:44.629Z,139.67
2019-03-01T15:12:20.098Z,154.10
2019-03-01T15:14:49.864Z,149.37
2019-03-01T15:17:21.884Z,149.67
2019-03-01T15:19:51.319Z,133.50
2019-03-01T15:22:20.939Z,114.40
2019-03-01T15:24:50.856Z,113.37
2019-03-01T15:27:20.577Z,113.47
2019-03-01T15:29:50.082Z,107.00
2019-03-01T15:32:19.988Z,155.70
2019-03-01T15:34:49.570Z,133.70
2019-03-01T15:37:19.224Z,112.57
2019-03-01T15:39:51.226Z,116.13
2019-03-01T15:42:21.135Z,99.17
2019-03-01T15:44:52.132Z,111.67
2019-03-01T15:47:23.911Z,98.43
2019-03-01T15:49:52.821Z,98.53
2019-03-01T15:52:22.789Z,95.87
2019-03-01T15:54:52.366Z,86.73
2019-03-01T15:57:21.830Z,95.07
2019-03-01T15:59:51.500Z,111.53
2019-03-01T16:02:21.084Z,107.90
2019-03-01T16:04:50.628Z,113.87
2019-03-01T16:07:20.610Z,90.87
2019-03-01T16:09:51.879Z,83.40
2019-03-01T16:12:21.809Z,79.53
2019-03-01T16:14:51.345Z,81.37
2019-03-01T16:17:21.910Z,79.00
2019-03-01T16:19:53.482Z,77.53
2019-03-01T16:22:23.311Z,99.40
2019-03-01T16:24:53.369Z,74.20
2019-03-01T16:27:28.696Z,83.10
2019-03-01T16:29:58.252Z,83.77
2019-03-01T16:32:27.940Z,72.63
2019-03-01T16:34:57.470Z,104.90
2019-03-01T16:37:28.555Z,87.30
2019-03-01T16:40:00.320Z,82.47
2019-03-01T16:42:38.259Z,85.83
2019-03-01T16:45:01.388Z,134.43
2019-03-01T16:47:30.969Z,103.17
2019-03-01T16:50:02.922Z,110.60
2019-03-01T16:52:32.882Z,126.47
2019-03-01T16:55:02.329Z,109.93
2019-03-01T16:57:32.075Z,104.43
2019-03-01T17:00:03.217Z,128.63
2019-03-01T17:02:33.139Z,100.43
2019-03-01T17:05:03.694Z,93.60
2019-03-01T17:07:34.133Z,94.23
2019-03-01T17:10:03.851Z,101.23
2019-03-01T17:12:33.959Z,99.53
2019-03-01T17:15:03.626Z,102.93
2019-03-01T17:17:36.779Z,86.50
2019-03-01T17:20:06.726Z,84.37
2019-03-01T17:22:36.523Z,87.40
2019-03-01T17:25:06.114Z,86.33
2019-03-01T17:27:36.738Z,95.67
2019-03-01T17:30:07.598Z,80.80
2019-03-01T17:32:37.760Z,67.73
2019-03-01T17:35:08.499Z,69.13
2019-03-01T17:37:38.213Z,89.50
2019-03-01T17:40:18.089Z,81.70
2019-03-01T17:42:49.049Z,91.97
2019-03-01T17:45:22.246Z,79.73
2019-03-01T17:47:52.677Z,75.50
2019-03-01T17:50:23.115Z,118.80
2019-03-01T17:52:52.871Z,77.10
2019-03-01T17:55:24.670Z,103.80
2019-03-01T17:57:54.370Z,81.90
2019-03-01T18:00:30.142Z,99.10
2019-03-01T18:03:02.780Z,77.67
2019-03-01T18:05:36.876Z,88.93
2019-03-01T18:08:04.955Z,81.17
2019-03-01T18:10:34.971Z,69.37
2019-03-01T18:13:06.334Z,68.67
2019-03-01T18:15:35.968Z,59.97
2019-03-01T18:18:08.871Z,66.47
2019-03-01T18:20:37.748Z,69.93
2019-03-01T18:23:08.785Z,84.63
2019-03-01T18:25:40.540Z,70.60
2019-03-01T18:28:11.385Z,76.70
2019-03-01T18:30:42.490Z,63.33
2019-03-01T18:33:12.560Z,68.90
2019-03-01T18:35:42.098Z,72.50
2019-03-01T18:38:12.778Z,52.30
2019-03-01T18:40:42.444Z,60.10
2019-03-01T18:43:14.024Z,45.10
2019-03-01T18:45:43.406Z,57.13
2019-03-01T18:48:13.191Z,55.50
2019-03-01T18:50:42.890Z,50.10
2019-03-01T18:53:13.039Z,64.30
2019-03-01T18:55:44.081Z,59.03
2019-03-01T18:58:14.970Z,76.03
2019-03-01T19:00:45.819Z,51.33
2019-03-01T19:03:16.056Z,53.60
2019-03-01T19:05:46.495Z,56.47
2019-03-01T19:08:16.584Z,57.97
2019-03-01T19:10:53.897Z,51.67
2019-03-01T19:13:20.814Z,46.67
2019-03-01T19:15:54.471Z,61.53
2019-03-01T19:18:22.126Z,58.40
2019-03-01T19:20:52.097Z,60.80
2019-03-01T19:23:21.788Z,52.33
2019-03-01T19:25:53.726Z,48.50
2019-03-01T19:28:26.947Z,56.63
2019-03-01T19:30:57.126Z,54.77
2019-03-01T19:33:26.821Z,52.20
2019-03-01T19:35:56.428Z,71.63
2019-03-01T19:38:26.268Z,47.33
2019-03-01T19:40:56.091Z,65.63
2019-03-01T19:43:26.408Z,60.40
2019-03-01T19:45:56.235Z,58.40
2019-03-01T19:48:26.389Z,71.23
2019-03-01T19:50:58.434Z,48.37
2019-03-01T19:53:29.750Z,62.80
2019-03-01T19:55:59.426Z,65.40
2019-03-01T19:58:29.299Z,59.30
2019-03-01T20:00:59.700Z,57.60
2019-03-01T20:03:29.675Z,64.40
2019-03-01T20:06:00.673Z,59.87
2019-03-01T20:08:30.843Z,57.37
2019-03-01T20:11:02.393Z,53.10
2019-03-01T20:13:32.113Z,55.20
2019-03-01T20:16:02.035Z,44.43
2019-03-01T20:18:32.307Z,47.33
2019-03-01T20:21:05.926Z,50.97
2019-03-01T20:23:34.975Z,44.80
2019-03-01T20:26:04.864Z,46.73
2019-03-01T20:28:34.608Z,53.60
2019-03-01T20:31:06.121Z,39.93
2019-03-01T20:33:35.923Z,44.30
2019-03-01T20:36:05.740Z,54.20
2019-03-01T20:38:40.058Z,45.17
2019-03-01T20:41:12.112Z,38.37
2019-03-01T20:43:42.848Z,43.47
2019-03-01T20:46:18.400Z,46.83
2019-03-01T20:48:48.460Z,42.87
2019-03-01T20:51:26.334Z,37.87
2019-03-01T20:53:53.172Z,39.10
2019-03-01T20:56:25.773Z,50.33
2019-03-01T20:58:55.682Z,48.63
2019-03-01T21:01:28.958Z,41.87
2019-03-01T21:04:01.539Z,53.80
2019-03-01T21:06:30.580Z,48.07
2019-03-01T21:09:04.142Z,51.90
2019-03-01T21:11:34.043Z,55.30
2019-03-01T21:14:03.686Z,69.03
2019-03-01T21:16:35.340Z,45.03
2019-03-01T21:19:08.864Z,47.83
2019-03-01T21:21:38.382Z,41.17
2019-03-01T21:24:10.284Z,44.13
2019-03-01T21:26:42.493Z,44.13
2019-03-01T21:29:14.399Z,40.73
2019-03-01T21:31:47.753Z,49.43
2019-03-01T21:34:24.485Z,45.37
2019-03-01T21:37:02.338Z,48.50
2019-03-01T21:39:33.057Z,46.17
2019-03-01T21:42:04.328Z,54.30
2019-03-01T21:44:37.296Z,48.70
2019-03-01T21:47:12.181Z,56.97
2019-03-01T21:49:45.246Z,58.33
2019-03-01T21:52:15.451Z,51.17
2019-03-01T21:54:48.626Z,46.63
2019-03-01T21:57:17.552Z,50.37
2019-03-01T21:59:49.742Z,56.77
2019-03-01T22:02:18.665Z,51.70
2019-03-01T22:04:48.532Z,61.90
2019-03-01T22:07:18.310Z,52.73
2019-03-01T22:09:47.834Z,63.47
2019-03-01T22:12:20.840Z,49.80
2019-03-01T22:14:49.162Z,53.80
2019-03-01T22:17:19.623Z,52.73
2019-03-01T22:19:49.329Z,69.33
2019-03-01T22:22:19.356Z,64.57
2019-03-01T22:24:48.865Z,68.87
2019-03-01T22:27:21.499Z,60.50
2019-03-01T22:29:50.052Z,51.90
2019-03-01T22:32:20.653Z,61.73
2019-03-01T22:34:50.688Z,55.13
2019-03-01T22:37:20.830Z,56.30
2019-03-01T22:39:51.490Z,57.30
2019-03-01T22:42:21.679Z,55.40
2019-03-01T22:44:52.014Z,63.70
2019-03-01T22:47:22.251Z,69.40
2019-03-01T22:49:52.617Z,87.40
2019-03-01T22:52:26.711Z,67.17
2019-03-01T22:54:57.604Z,68.77
2019-03-01T22:57:26.133Z,76.83
2019-03-01T22:59:56.271Z,74.83
2019-03-01T23:02:26.221Z,69.07
2019-03-01T23:04:55.779Z,80.93
2019-03-01T23:07:26.475Z,76.60
2019-03-01T23:09:56.856Z,77.00
2019-03-01T23:12:26.360Z,78.60
2019-03-01T23:14:55.897Z,82.20
2019-03-01T23:17:27.599Z,87.90
2019-03-01T23:19:56.988Z,90.67
2019-03-01T23:22:26.635Z,75.73
2019-03-01T23:24:56.086Z,88.03
2019-03-01T23:27:28.469Z,91.73
2019-03-01T23:29:56.863Z,97.97
2019-03-01T23:32:26.280Z,96.90
2019-03-01T23:34:55.722Z,116.67
2019-03-01T23:37:25.241Z,85.20
2019-03-01T23:39:57.053Z,89.37
2019-03-01T23:42:26.006Z,88.10
2019-03-01T23:44:55.664Z,92.30
2019-03-01T23:47:25.179Z,88.90
2019-03-01T23:49:55.688Z,94.43
2019-03-01T23:52:25.959Z,100.40
2019-03-01T23:54:55.604Z,87.77
2019-03-01T23:57:25.173Z,86.43
2019-03-01T23:59:58.676Z,94.00
